NCAR-RAP Real-Time Weather Data

Output produced by METARs form (10 April 2020  05:28 UTC)
found at http://weather.rap.ucar.edu/surface/
 
KROA 100454Z 30015G31KT 10SM CLR 11/M09 A2966 RMK PK WND 30036/0438 SLP038 P0000 T01061089 402110106